Historique des mesures à Cassis (13260), France
Quotidien Résumé Mars 14, 2017 Unités:  Métrique    US   Métrique/US
« Précédent (Jour)
Suivant (Jour) »
Quotidien Hebdomadaire Mensuel Annuel Période au choix
  Maximum: Minimum: Moyenne:
Température: TemperatureC °C 10.6 °C 13.3 °C
Point de rosée: DewpointC °C 5.3 °C 6.8 °C
Humidité: Humidity % 54 % 62 %
Vitesse du vent: 0 km/h 0 km/h 3.2 km/h
Rafales: 0 km/h - -
Vent:- - SE
Pression: PressurehPa hPa 1022.6 hPa -
Précipitations: 0.0 mm    
Historical Graphs
 
 
Mesures pour : Mars 14, 2017
Heure Temperature Point de rosée Pression Vent Vitesse du vent Rafales Humidité Pluie (par heure) Conditions
TemperatureC °C DewpointC °C PressurehPa hPa Calm     Humidity % HourlyPrecipMM mm SoftwareType W/m2
00:11 11.4 °C 6.2 °C 1023.2 hPa North 2.9 km/h 5.1 km/h 70 % 0.0 mm open2300-1.11 W/m2
01:10 11.0 °C 5.8 °C 1023.2 hPa Calm   4.7 km/h 70 % 0.0 mm open2300-1.11 W/m2
02:11 10.9 °C 5.7 °C 1023.6 hPa North 2.9 km/h 3.4 km/h 70 % 0.0 mm open2300-1.11 W/m2
03:10 10.6 °C 5.6 °C 1022.9 hPa NNE 4.7 km/h 4.7 km/h 71 % 0.0 mm open2300-1.11 W/m2
04:11 10.6 °C 5.6 °C 1022.9 hPa North 2.9 km/h 5.1 km/h 71 % 0.0 mm open2300-1.11 W/m2
05:10 10.9 °C 5.4 °C 1022.6 hPa NNW 2.3 km/h 4.7 km/h 69 % 0.0 mm open2300-1.11 W/m2
06:11 10.7 °C 5.3 °C 1022.9 hPa NW 5.1 km/h 5.1 km/h 69 % 0.0 mm open2300-1.11 W/m2
07:10 10.9 °C 5.4 °C 1023.2 hPa NNE 5.1 km/h 5.1 km/h 69 % 0.0 mm open2300-1.11 W/m2
08:11 11.9 °C 5.7 °C 1023.6 hPa NNE 3.4 km/h 3.4 km/h 66 % 0.0 mm open2300-1.11 W/m2
09:10 13.9 °C 7.4 °C 1024.3 hPa Calm     65 % 0.0 mm open2300-1.11 W/m2
10:11 14.8 °C 8.3 °C 1024.6 hPa South 3.4 km/h 5.1 km/h 65 % 0.0 mm open2300-1.11 W/m2
11:10 16.5 °C 9.0 °C 1025.6 hPa Calm   6.9 km/h 61 % 0.0 mm open2300-1.11 W/m2
12:11 17.6 °C 9.2 °C 1025.6 hPa SSE 6.4 km/h 6.4 km/h 58 % 0.0 mm open2300-1.11 W/m2
13:10 17.9 °C 8.7 °C 1025.3 hPa Calm   10.3 km/h 55 % 0.0 mm open2300-1.11 W/m2
14:11 17.8 °C 8.3 °C 1024.6 hPa SE 9.8 km/h 9.8 km/h 54 % 0.0 mm open2300-1.11 W/m2
15:11 17.5 °C 9.1 °C 1024.6 hPa SE 17.4 km/h 17.4 km/h 58 % 0.0 mm open2300-1.11 W/m2
16:11 16.9 °C 9.6 °C 1024.3 hPa South 7.6 km/h 7.6 km/h 62 % 0.0 mm open2300-1.11 W/m2
17:10 16.7 °C 8.9 °C 1024.6 hPa Calm   4.7 km/h 60 % 0.0 mm open2300-1.11 W/m2
18:11 16.3 °C 8.8 °C 1024.3 hPa Calm   4.7 km/h 61 % 0.0 mm open2300-1.11 W/m2
19:10 14.7 °C 7.7 °C 1024.3 hPa Calm     63 % 0.0 mm open2300-1.11 W/m2
20:11 13.5 °C 6.1 °C 1024.6 hPa NNW 6.4 km/h 17.4 km/h 61 % 0.0 mm open2300-1.11 W/m2
21:10 13.2 °C 6.3 °C 1024.3 hPa NW 1.8 km/h 1.8 km/h 63 % 0.0 mm open2300-1.11 W/m2
22:11 12.8 °C 6.6 °C 1023.9 hPa Calm     66 % 0.0 mm open2300-1.11 W/m2
23:10 12.5 °C 6.3 °C 1024.3 hPa Calm     66 % 0.0 mm open2300-1.11 W/m2
Observations météo à CASSIS
WU-History script by Weather Underground - 1 mb